createdAt,value
2022-11-16T00:01:00.473Z,38.30
2022-11-16T00:03:28.081Z,38.20
2022-11-16T00:05:59.419Z,39.33
2022-11-16T00:08:27.159Z,35.50
2022-11-16T00:10:54.551Z,35.67
2022-11-16T00:13:21.958Z,42.67
2022-11-16T00:15:58.258Z,36.17
2022-11-16T00:18:25.681Z,36.00
2022-11-16T00:20:53.057Z,40.05
2022-11-16T00:23:20.478Z,38.67
2022-11-16T00:25:47.829Z,39.63
2022-11-16T00:28:15.179Z,38.53
2022-11-16T00:30:42.620Z,40.03
2022-11-16T00:33:13.840Z,37.20
2022-11-16T00:35:41.586Z,34.80
2022-11-16T00:38:08.997Z,38.72
2022-11-16T00:40:36.416Z,39.90
2022-11-16T00:43:03.795Z,35.53
2022-11-16T00:45:31.646Z,41.47
2022-11-16T00:48:00.629Z,38.45
2022-11-16T00:50:28.947Z,39.05
2022-11-16T00:52:56.747Z,40.72
2022-11-16T00:55:24.564Z,44.47
2022-11-16T00:57:51.986Z,42.08
2022-11-16T01:00:21.381Z,38.10
2022-11-16T01:02:48.777Z,38.92
2022-11-16T01:05:16.137Z,37.58
2022-11-16T01:07:43.597Z,38.50
2022-11-16T01:10:15.707Z,39.05
2022-11-16T01:12:43.504Z,40.05
2022-11-16T01:15:11.061Z,37.63
2022-11-16T01:17:39.702Z,38.70
2022-11-16T01:20:10.281Z,42.28
2022-11-16T01:22:38.168Z,37.22
2022-11-16T01:25:05.765Z,40.10
2022-11-16T01:27:33.290Z,35.88
2022-11-16T01:30:03.568Z,38.80
2022-11-16T01:32:32.247Z,42.97
2022-11-16T01:34:59.675Z,38.50
2022-11-16T01:37:30.598Z,35.22
2022-11-16T01:39:58.133Z,39.33
2022-11-16T01:42:27.749Z,36.72
2022-11-16T01:45:04.370Z,40.65
2022-11-16T01:47:32.984Z,38.13
2022-11-16T01:50:09.541Z,38.42
2022-11-16T01:52:40.757Z,39.92
2022-11-16T01:55:08.796Z,37.88
2022-11-16T01:57:48.293Z,33.50
2022-11-16T02:00:16.855Z,41.50
2022-11-16T02:02:55.681Z,36.03
2022-11-16T02:05:52.526Z,40.97
2022-11-16T02:08:47.059Z,40.00
2022-11-16T02:11:14.707Z,39.38
2022-11-16T02:13:51.370Z,40.80
2022-11-16T02:16:31.408Z,40.80
2022-11-16T02:18:59.016Z,40.75
2022-11-16T02:21:39.906Z,43.85
2022-11-16T02:24:17.100Z,39.38
2022-11-16T02:26:44.565Z,41.10
2022-11-16T02:29:30.275Z,43.67
2022-11-16T02:32:03.871Z,42.90
2022-11-16T02:34:45.760Z,42.53
2022-11-16T02:37:15.802Z,43.13
2022-11-16T02:39:44.860Z,44.65
2022-11-16T02:42:15.756Z,45.50
2022-11-16T02:44:45.912Z,46.10
2022-11-16T02:47:17.635Z,48.10
2022-11-16T02:49:48.232Z,56.22
2022-11-16T02:52:16.254Z,50.13
2022-11-16T02:54:43.674Z,47.60
2022-11-16T02:57:12.244Z,47.03
2022-11-16T02:59:47.681Z,46.75
2022-11-16T03:02:24.289Z,49.42
2022-11-16T03:04:57.274Z,44.65
2022-11-16T03:07:28.064Z,49.28
2022-11-16T03:09:57.315Z,49.95
2022-11-16T03:12:26.202Z,48.90
2022-11-16T03:14:59.837Z,45.55
2022-11-16T03:17:32.157Z,45.45
2022-11-16T03:20:03.036Z,41.40
2022-11-16T03:22:39.702Z,44.33
2022-11-16T03:25:08.107Z,39.97
2022-11-16T03:27:38.699Z,37.97
2022-11-16T03:30:24.130Z,39.45
2022-11-16T03:32:54.298Z,38.78
2022-11-16T03:35:27.617Z,35.47
2022-11-16T03:37:57.660Z,35.78
2022-11-16T03:40:28.847Z,37.08
2022-11-16T03:42:57.166Z,37.33
2022-11-16T03:45:25.066Z,34.80
2022-11-16T03:47:53.963Z,38.88
2022-11-16T03:50:22.151Z,37.03
2022-11-16T03:52:49.753Z,37.78
2022-11-16T03:55:17.211Z,39.03
2022-11-16T03:57:45.693Z,40.83
2022-11-16T04:00:14.363Z,38.95
2022-11-16T04:02:42.679Z,38.17
2022-11-16T04:05:35.173Z,37.97
2022-11-16T04:08:21.179Z,39.28
2022-11-16T04:11:07.330Z,40.03
2022-11-16T04:13:53.977Z,37.83
2022-11-16T04:16:39.993Z,40.70
2022-11-16T04:19:28.287Z,37.78
2022-11-16T04:22:20.519Z,38.85
2022-11-16T04:24:50.642Z,39.72
2022-11-16T04:27:37.348Z,44.70
2022-11-16T04:30:05.635Z,37.42
2022-11-16T04:32:53.714Z,39.65
2022-11-16T04:35:40.489Z,38.88
2022-11-16T04:38:10.492Z,42.83
2022-11-16T04:40:38.462Z,42.13
2022-11-16T04:43:06.224Z,39.40
2022-11-16T04:45:56.273Z,41.05
2022-11-16T04:48:27.946Z,36.85
2022-11-16T04:50:56.191Z,43.65
2022-11-16T04:53:27.128Z,38.60
2022-11-16T04:56:24.023Z,42.78
2022-11-16T04:58:51.922Z,42.35
2022-11-16T05:01:39.550Z,46.33
2022-11-16T05:04:07.860Z,39.80
2022-11-16T05:06:35.722Z,41.13
2022-11-16T05:09:03.412Z,48.03
2022-11-16T05:11:31.078Z,37.80
2022-11-16T05:13:59.905Z,45.30
2022-11-16T05:16:28.389Z,42.53
2022-11-16T05:19:14.309Z,44.13
2022-11-16T05:21:42.643Z,45.22
2022-11-16T05:24:29.495Z,47.92
2022-11-16T05:26:56.969Z,46.80
2022-11-16T05:29:24.410Z,45.13
2022-11-16T05:31:51.933Z,45.05
2022-11-16T05:34:19.455Z,47.00
2022-11-16T05:36:46.818Z,42.42
2022-11-16T05:39:14.406Z,45.10
2022-11-16T05:41:42.875Z,45.65
2022-11-16T05:44:10.414Z,46.22
2022-11-16T05:46:38.741Z,45.70
2022-11-16T05:49:09.208Z,42.85
2022-11-16T05:51:37.911Z,48.40
2022-11-16T05:54:05.737Z,48.65
2022-11-16T05:56:34.094Z,49.83
2022-11-16T05:59:02.028Z,44.15
2022-11-16T06:01:29.661Z,45.90
2022-11-16T06:04:00.418Z,44.85
2022-11-16T06:06:28.850Z,46.95
2022-11-16T06:08:57.603Z,43.50
2022-11-16T06:11:31.375Z,43.97
2022-11-16T06:14:02.002Z,48.33
2022-11-16T06:16:29.389Z,41.85
2022-11-16T06:18:56.978Z,45.80
2022-11-16T06:21:24.772Z,46.75
2022-11-16T06:23:53.628Z,43.75
2022-11-16T06:26:22.335Z,42.40
2022-11-16T06:28:50.570Z,44.42
2022-11-16T06:31:18.053Z,42.85
2022-11-16T06:33:46.196Z,45.38
2022-11-16T06:36:21.633Z,43.47
2022-11-16T06:38:50.905Z,44.42
2022-11-16T06:41:19.721Z,41.25
2022-11-16T06:43:50.112Z,42.78
2022-11-16T06:46:21.154Z,46.85
2022-11-16T06:48:48.980Z,41.47
2022-11-16T06:51:16.478Z,47.53
2022-11-16T06:53:44.155Z,43.95
2022-11-16T06:56:13.352Z,44.92
2022-11-16T06:58:45.174Z,42.78
2022-11-16T07:01:14.561Z,42.33
2022-11-16T07:03:44.075Z,44.00
2022-11-16T07:06:13.185Z,42.08
2022-11-16T07:08:43.275Z,41.63
2022-11-16T07:11:12.448Z,43.63
2022-11-16T07:13:39.959Z,43.03
2022-11-16T07:16:10.413Z,47.10
2022-11-16T07:18:43.227Z,48.75
2022-11-16T07:21:12.324Z,45.80
2022-11-16T07:23:40.125Z,44.22
2022-11-16T07:26:10.717Z,47.63
2022-11-16T07:28:48.546Z,47.60
2022-11-16T07:31:19.982Z,45.22
2022-11-16T07:33:47.940Z,50.33
2022-11-16T07:36:33.790Z,46.17
2022-11-16T07:39:01.989Z,43.40
2022-11-16T07:41:29.813Z,38.40
2022-11-16T07:44:12.373Z,45.70
2022-11-16T07:46:47.428Z,42.53
2022-11-16T07:49:17.260Z,39.22
2022-11-16T07:51:50.470Z,39.60
2022-11-16T07:54:32.650Z,41.97
2022-11-16T07:57:00.067Z,39.60
2022-11-16T07:59:28.557Z,43.78
2022-11-16T08:01:56.688Z,42.38
2022-11-16T08:04:24.195Z,45.28
2022-11-16T08:06:52.080Z,43.70
2022-11-16T08:09:21.170Z,44.38
2022-11-16T08:11:51.391Z,48.92
2022-11-16T08:14:19.630Z,44.63
2022-11-16T08:16:49.482Z,46.33
2022-11-16T08:19:18.121Z,46.22
2022-11-16T08:21:45.858Z,46.95
2022-11-16T08:24:14.733Z,49.10
2022-11-16T08:26:44.132Z,50.05
2022-11-16T08:29:15.179Z,44.97
2022-11-16T08:31:48.061Z,46.47
2022-11-16T08:34:19.195Z,46.58
2022-11-16T08:36:50.405Z,42.00
2022-11-16T08:39:20.507Z,47.22
2022-11-16T08:41:48.078Z,45.22
2022-11-16T08:44:15.838Z,40.78
2022-11-16T08:46:46.824Z,40.10
2022-11-16T08:49:48.276Z,43.03
2022-11-16T08:52:18.967Z,46.47
2022-11-16T08:54:47.313Z,41.17
2022-11-16T08:57:16.518Z,52.05
2022-11-16T08:59:45.443Z,51.08
2022-11-16T09:02:14.655Z,48.45
2022-11-16T09:04:42.425Z,43.38
2022-11-16T09:07:10.657Z,48.83
2022-11-16T09:09:38.178Z,49.78
2022-11-16T09:12:05.709Z,46.15
2022-11-16T09:14:33.372Z,45.88
2022-11-16T09:17:00.806Z,50.80
2022-11-16T09:19:28.222Z,41.38
2022-11-16T09:21:55.869Z,50.80
2022-11-16T09:24:23.203Z,48.10
2022-11-16T09:26:50.612Z,47.05
2022-11-16T09:29:17.969Z,48.60
2022-11-16T09:31:46.170Z,42.72
2022-11-16T09:34:13.525Z,40.58
2022-11-16T09:36:40.969Z,41.58
2022-11-16T09:41:58.905Z,38.03
2022-11-16T09:44:33.090Z,38.85
2022-11-16T09:47:01.888Z,37.95
2022-11-16T09:49:34.199Z,30.48
2022-11-16T09:52:03.912Z,37.78
2022-11-16T09:54:33.684Z,37.60
2022-11-16T09:57:05.638Z,41.50
2022-11-16T09:59:42.411Z,39.35
2022-11-16T10:02:45.189Z,38.03
2022-11-16T10:05:12.611Z,42.47
2022-11-16T10:07:48.409Z,45.42
2022-11-16T10:10:22.271Z,46.22
2022-11-16T10:12:52.673Z,43.90
2022-11-16T10:15:38.732Z,40.63
2022-11-16T10:18:12.483Z,45.78
2022-11-16T10:20:55.210Z,39.10
2022-11-16T10:23:25.604Z,50.22
2022-11-16T10:26:13.375Z,43.60
2022-11-16T10:28:43.835Z,41.50
2022-11-16T10:31:31.571Z,43.28
2022-11-16T10:33:59.778Z,40.38
2022-11-16T10:36:28.126Z,34.75
2022-11-16T10:39:00.286Z,38.67
2022-11-16T10:41:40.890Z,36.85
2022-11-16T10:44:22.489Z,40.80
2022-11-16T10:46:56.861Z,38.13
2022-11-16T10:49:42.991Z,43.07
2022-11-16T10:52:10.463Z,39.05
2022-11-16T10:54:42.882Z,38.88
2022-11-16T10:57:14.209Z,43.97
2022-11-16T10:59:46.559Z,40.08
2022-11-16T11:02:26.211Z,43.10
2022-11-16T11:05:16.862Z,39.55
2022-11-16T11:07:54.054Z,40.42
2022-11-16T11:10:28.598Z,37.97
2022-11-16T11:13:11.094Z,41.88
2022-11-16T11:15:42.525Z,40.92
2022-11-16T11:18:24.951Z,41.72
2022-11-16T11:20:58.576Z,42.63
2022-11-16T11:23:27.099Z,41.10
2022-11-16T11:25:56.027Z,44.47
2022-11-16T11:28:23.474Z,43.75
2022-11-16T11:31:06.130Z,40.65
2022-11-16T11:33:35.970Z,46.47
2022-11-16T11:36:08.050Z,45.65
2022-11-16T11:38:36.047Z,46.53
2022-11-16T11:41:05.325Z,43.35
2022-11-16T11:43:34.381Z,40.80
2022-11-16T11:46:16.225Z,40.00
2022-11-16T11:48:52.285Z,43.75
2022-11-16T11:51:28.505Z,39.88
2022-11-16T11:53:59.949Z,50.83
2022-11-16T11:56:30.264Z,40.50
2022-11-16T11:58:58.021Z,40.65
2022-11-16T12:01:40.414Z,43.28
2022-11-16T12:04:26.584Z,40.08
2022-11-16T12:07:03.093Z,48.13
2022-11-16T12:09:35.775Z,45.28
2022-11-16T12:12:21.757Z,41.05
2022-11-16T12:15:07.778Z,46.17
2022-11-16T12:17:53.489Z,45.22
2022-11-16T12:20:20.934Z,42.33
2022-11-16T12:22:51.392Z,38.30
2022-11-16T12:25:18.798Z,42.05
2022-11-16T12:27:49.251Z,39.63
2022-11-16T12:30:19.075Z,41.88
2022-11-16T12:32:58.605Z,40.25
2022-11-16T12:35:25.986Z,42.20
2022-11-16T12:37:53.323Z,39.60
2022-11-16T12:40:20.719Z,40.00
2022-11-16T12:43:00.480Z,38.72
2022-11-16T12:45:42.850Z,42.00
2022-11-16T12:48:29.023Z,49.67
2022-11-16T12:50:56.460Z,40.17
2022-11-16T12:53:56.133Z,41.40
2022-11-16T12:56:23.508Z,40.92
2022-11-16T12:58:56.712Z,40.33
2022-11-16T13:01:30.240Z,40.80
2022-11-16T13:04:11.002Z,42.03
2022-11-16T13:06:44.971Z,43.05
2022-11-16T13:09:17.301Z,37.92
2022-11-16T13:11:52.982Z,40.45
2022-11-16T13:14:21.855Z,45.78
2022-11-16T13:16:49.964Z,42.30
2022-11-16T13:19:18.136Z,43.72
2022-11-16T13:21:48.263Z,41.50
2022-11-16T13:24:42.065Z,43.38
2022-11-16T13:27:25.338Z,46.47
2022-11-16T13:29:55.546Z,48.88
2022-11-16T13:32:25.961Z,47.67
2022-11-16T13:34:53.759Z,44.80
2022-11-16T13:37:39.416Z,44.88
2022-11-16T13:40:06.888Z,43.35
2022-11-16T13:42:35.872Z,44.28
2022-11-16T13:45:22.415Z,43.65
2022-11-16T13:47:53.885Z,44.25
2022-11-16T13:50:37.277Z,45.92
2022-11-16T13:53:57.558Z,47.38
2022-11-16T13:55:58.943Z,50.08
2022-11-16T13:58:27.731Z,53.38
2022-11-16T14:01:00.410Z,63.55
2022-11-16T14:03:38.521Z,67.80
2022-11-16T14:06:25.966Z,65.70
2022-11-16T14:08:57.459Z,59.42
2022-11-16T14:11:33.982Z,53.45
2022-11-16T14:14:05.595Z,57.13
2022-11-16T14:16:42.997Z,54.80
2022-11-16T14:19:29.398Z,52.42
2022-11-16T14:22:08.229Z,51.25
2022-11-16T14:24:40.395Z,55.88
2022-11-16T14:27:10.646Z,53.75
2022-11-16T14:29:45.090Z,53.67
2022-11-16T14:32:21.219Z,52.87
2022-11-16T14:34:49.754Z,58.92
2022-11-16T14:37:37.360Z,60.17
2022-11-16T14:40:08.841Z,60.15
2022-11-16T14:43:01.891Z,61.33
2022-11-16T14:45:36.652Z,70.38
2022-11-16T14:48:06.336Z,73.35
2022-11-16T14:50:40.626Z,77.43
2022-11-16T14:53:09.828Z,73.72
2022-11-16T14:55:42.183Z,79.47
2022-11-16T14:58:09.715Z,66.80
2022-11-16T15:00:37.574Z,74.80
2022-11-16T15:03:05.714Z,78.30
2022-11-16T15:05:37.639Z,70.00
2022-11-16T15:08:08.613Z,72.55
2022-11-16T15:10:36.437Z,65.43
2022-11-16T15:13:04.126Z,65.53
2022-11-16T15:15:32.265Z,66.53
2022-11-16T15:17:59.692Z,63.80
2022-11-16T15:20:28.467Z,70.68
2022-11-16T15:22:57.625Z,72.28
2022-11-16T15:25:28.300Z,76.00
2022-11-16T15:27:57.091Z,76.63
2022-11-16T15:30:29.099Z,79.65
2022-11-16T15:32:56.681Z,76.32
2022-11-16T15:35:33.745Z,80.28
2022-11-16T15:38:05.447Z,90.93
2022-11-16T15:40:33.915Z,84.30
2022-11-16T15:43:02.087Z,98.25
2022-11-16T15:45:30.445Z,101.03
2022-11-16T15:48:00.540Z,99.95
2022-11-16T15:50:30.827Z,93.35
2022-11-16T15:52:59.893Z,95.15
2022-11-16T15:55:36.865Z,91.00
2022-11-16T15:58:26.423Z,96.00
2022-11-16T16:00:54.424Z,100.03
2022-11-16T16:03:27.337Z,110.85
2022-11-16T16:05:55.370Z,123.00
2022-11-16T16:08:41.781Z,125.68
2022-11-16T16:11:10.703Z,108.22
2022-11-16T16:13:39.707Z,135.90
2022-11-16T16:16:19.152Z,148.18
2022-11-16T16:18:46.649Z,149.05
2022-11-16T16:21:14.449Z,166.05
2022-11-16T16:23:45.946Z,140.48
2022-11-16T16:26:14.029Z,146.68
2022-11-16T16:28:41.666Z,172.80
2022-11-16T16:31:09.534Z,160.60
2022-11-16T16:33:37.458Z,231.73
2022-11-16T16:36:05.341Z,197.07
2022-11-16T16:38:33.123Z,179.93
2022-11-16T16:41:04.404Z,221.70
2022-11-16T16:43:32.551Z,212.93
2022-11-16T16:46:04.576Z,195.38
2022-11-16T16:48:32.006Z,225.05
2022-11-16T16:50:59.358Z,293.80
2022-11-16T16:53:26.795Z,308.50
2022-11-16T16:55:54.165Z,263.60
2022-11-16T16:58:21.581Z,282.77
2022-11-16T17:00:49.230Z,257.95
2022-11-16T17:03:16.711Z,249.68
2022-11-16T17:05:44.636Z,333.00
2022-11-16T17:08:12.011Z,362.00
2022-11-16T17:10:39.487Z,304.77
2022-11-16T17:13:06.854Z,278.60
2022-11-16T17:15:34.358Z,288.70
2022-11-16T17:18:01.762Z,234.55
2022-11-16T17:20:29.200Z,196.45
2022-11-16T17:22:56.549Z,198.10
2022-11-16T17:25:23.933Z,183.38
2022-11-16T17:27:51.275Z,194.95
2022-11-16T17:30:18.701Z,183.63
2022-11-16T17:32:46.016Z,176.27
2022-11-16T17:35:13.377Z,200.43
2022-11-16T17:37:40.836Z,196.40
2022-11-16T17:40:08.568Z,177.77
2022-11-16T17:42:36.137Z,163.43
2022-11-16T17:45:03.840Z,152.00
2022-11-16T17:47:34.287Z,125.88
2022-11-16T17:50:01.940Z,118.20
2022-11-16T17:52:29.302Z,123.93
2022-11-16T17:54:56.743Z,132.45
2022-11-16T17:57:24.106Z,123.18
2022-11-16T17:59:51.578Z,127.43
2022-11-16T18:02:18.962Z,127.32
2022-11-16T18:04:50.941Z,119.97
2022-11-16T18:07:18.809Z,126.13
2022-11-16T18:09:46.193Z,123.07
2022-11-16T18:12:13.607Z,126.43
2022-11-16T18:14:42.383Z,128.40
2022-11-16T18:17:09.986Z,139.15
2022-11-16T18:19:37.436Z,142.70
2022-11-16T18:22:04.897Z,145.20
2022-11-16T18:24:34.962Z,136.75
2022-11-16T18:27:02.395Z,128.27
2022-11-16T18:29:29.748Z,135.18
2022-11-16T18:31:57.346Z,128.27
2022-11-16T18:34:24.749Z,144.70
2022-11-16T18:36:52.241Z,151.95
2022-11-16T18:39:19.742Z,131.50
2022-11-16T18:41:53.431Z,133.10
2022-11-16T18:44:22.142Z,141.90
2022-11-16T18:46:49.530Z,153.48
2022-11-16T18:49:16.937Z,147.35
2022-11-16T18:51:44.317Z,142.50
2022-11-16T18:54:11.752Z,129.25
2022-11-16T18:56:39.110Z,133.65
2022-11-16T18:59:06.573Z,129.63
2022-11-16T19:01:34.250Z,116.22
2022-11-16T19:04:01.812Z,125.22
2022-11-16T19:06:32.267Z,129.52
2022-11-16T19:09:00.043Z,113.95
2022-11-16T19:11:28.754Z,113.85
2022-11-16T19:13:57.621Z,110.85
2022-11-16T19:16:25.493Z,98.97
2022-11-16T19:18:53.175Z,103.25
2022-11-16T19:21:22.045Z,97.50
2022-11-16T19:23:50.798Z,107.53
2022-11-16T19:26:19.090Z,113.72
2022-11-16T19:28:47.146Z,105.00
2022-11-16T19:31:28.611Z,98.50
2022-11-16T19:33:57.291Z,92.93
2022-11-16T19:36:25.333Z,95.50
2022-11-16T19:38:52.994Z,89.32
2022-11-16T19:41:22.372Z,92.03
2022-11-16T19:43:52.546Z,99.43
2022-11-16T19:46:24.316Z,92.38
2022-11-16T19:48:52.158Z,82.53
2022-11-16T19:51:22.486Z,84.18
2022-11-16T19:53:49.885Z,83.45
2022-11-16T19:56:18.249Z,78.78
2022-11-16T19:58:45.720Z,86.95
2022-11-16T20:01:20.915Z,76.80
2022-11-16T20:06:15.774Z,73.90
2022-11-16T20:08:46.926Z,73.40
2022-11-16T20:11:15.425Z,69.90
2022-11-16T20:13:43.161Z,67.93
2022-11-16T20:16:11.624Z,74.05
2022-11-16T20:18:39.290Z,68.05
2022-11-16T20:21:07.373Z,67.63
2022-11-16T20:23:35.469Z,65.18
2022-11-16T20:26:06.578Z,66.32
2022-11-16T20:28:35.053Z,69.10
2022-11-16T20:31:05.237Z,72.53
2022-11-16T20:33:35.812Z,68.45
2022-11-16T20:36:07.693Z,68.75
2022-11-16T20:38:35.763Z,71.43
2022-11-16T20:41:13.286Z,73.60
2022-11-16T20:43:41.547Z,79.55
2022-11-16T20:46:09.829Z,80.57
2022-11-16T20:48:37.704Z,77.00
2022-11-16T20:51:05.813Z,77.95
2022-11-16T20:53:34.185Z,80.70
2022-11-16T20:56:02.729Z,81.50
2022-11-16T20:58:30.504Z,77.60
2022-11-16T21:01:00.954Z,82.97
2022-11-16T21:03:29.064Z,84.00
2022-11-16T21:05:56.584Z,85.97
2022-11-16T21:08:25.171Z,88.68
2022-11-16T21:10:52.795Z,86.88
2022-11-16T21:13:39.221Z,87.90
2022-11-16T21:16:08.485Z,91.68
2022-11-16T21:18:35.861Z,84.97
2022-11-16T21:21:04.698Z,93.63
2022-11-16T21:23:33.307Z,86.78
2022-11-16T21:26:05.316Z,90.15
2022-11-16T21:28:32.857Z,86.35
2022-11-16T21:31:01.351Z,90.80
2022-11-16T21:33:29.032Z,78.80
2022-11-16T21:35:56.761Z,79.45
2022-11-16T21:38:28.017Z,86.38
2022-11-16T21:40:55.453Z,82.50
2022-11-16T21:43:22.828Z,85.82
2022-11-16T21:45:51.116Z,83.60
2022-11-16T21:48:18.626Z,90.25
2022-11-16T21:50:46.025Z,83.85
2022-11-16T21:53:13.350Z,88.63
2022-11-16T21:55:40.782Z,90.07
2022-11-16T21:58:08.177Z,94.50
2022-11-16T22:00:35.564Z,93.18
2022-11-16T22:03:02.969Z,91.40
2022-11-16T22:05:48.918Z,93.80
2022-11-16T22:08:16.406Z,95.53
2022-11-16T22:10:43.810Z,96.32
2022-11-16T22:13:11.190Z,95.05
2022-11-16T22:15:38.535Z,93.28
2022-11-16T22:18:05.999Z,92.85
2022-11-16T22:20:33.475Z,97.47
2022-11-16T22:23:00.841Z,102.68
2022-11-16T22:25:28.345Z,100.07
2022-11-16T22:30:45.106Z,100.85
2022-11-16T22:33:16.089Z,94.80
2022-11-16T22:35:43.440Z,101.68
2022-11-16T22:38:10.978Z,97.57
2022-11-16T22:40:38.353Z,98.00
2022-11-16T22:43:05.702Z,101.88
2022-11-16T22:45:33.191Z,103.50
2022-11-16T22:48:00.535Z,102.03
2022-11-16T22:50:27.918Z,101.53
2022-11-16T22:52:58.855Z,104.68
2022-11-16T22:55:26.307Z,98.03
2022-11-16T22:57:53.870Z,94.65
2022-11-16T23:00:21.370Z,108.72
2022-11-16T23:02:48.824Z,102.07
2022-11-16T23:05:16.239Z,96.15
2022-11-16T23:07:43.974Z,96.57
2022-11-16T23:10:11.638Z,99.65
2022-11-16T23:12:57.518Z,100.80
2022-11-16T23:15:43.514Z,91.95
2022-11-16T23:18:10.942Z,102.82
2022-11-16T23:20:56.782Z,93.63
2022-11-16T23:23:42.851Z,88.00
2022-11-16T23:26:32.729Z,88.03
2022-11-16T23:29:00.915Z,86.53
2022-11-16T23:31:28.325Z,85.00
2022-11-16T23:33:55.779Z,83.88
2022-11-16T23:36:23.196Z,81.28
2022-11-16T23:38:50.589Z,79.10
2022-11-16T23:41:36.870Z,79.15
2022-11-16T23:44:04.420Z,76.88
2022-11-16T23:46:32.685Z,76.38
2022-11-16T23:49:00.806Z,78.43
2022-11-16T23:51:28.190Z,83.80
2022-11-16T23:53:55.934Z,74.72
2022-11-16T23:56:23.385Z,79.85
2022-11-16T23:58:50.890Z,73.00
